sensor_id;sensor_type;location;lat;lon;timestamp;pressure;altitude;pressure_sealevel;temperature;humidity
53246;BME280;39569;51.090;-1.786;2023-03-22T00:01:08;99675.00;;;16.45;59.78
53246;BME280;39569;51.090;-1.786;2023-03-22T00:03:36;99686.28;;;16.42;59.55
53246;BME280;39569;51.090;-1.786;2023-03-22T00:06:04;99675.44;;;17.05;58.45
53246;BME280;39569;51.090;-1.786;2023-03-22T00:08:30;99668.19;;;16.65;59.52
53246;BME280;39569;51.090;-1.786;2023-03-22T00:10:59;99670.03;;;16.77;60.01
53246;BME280;39569;51.090;-1.786;2023-03-22T00:13:26;99683.34;;;16.43;60.38
53246;BME280;39569;51.090;-1.786;2023-03-22T00:15:54;99679.59;;;16.33;60.77
53246;BME280;39569;51.090;-1.786;2023-03-22T00:18:24;99672.69;;;16.37;60.60
53246;BME280;39569;51.090;-1.786;2023-03-22T00:20:52;99654.56;;;16.21;61.52
53246;BME280;39569;51.090;-1.786;2023-03-22T00:23:20;99649.59;;;16.41;60.91
53246;BME280;39569;51.090;-1.786;2023-03-22T00:25:48;99642.66;;;16.45;60.81
53246;BME280;39569;51.090;-1.786;2023-03-22T00:28:16;99640.91;;;16.39;60.31
53246;BME280;39569;51.090;-1.786;2023-03-22T00:30:52;99638.31;;;16.44;61.23
53246;BME280;39569;51.090;-1.786;2023-03-22T00:33:19;99624.25;;;15.91;61.67
53246;BME280;39569;51.090;-1.786;2023-03-22T00:35:50;99621.41;;;16.20;61.43
53246;BME280;39569;51.090;-1.786;2023-03-22T00:38:17;99615.25;;;15.97;62.06
53246;BME280;39569;51.090;-1.786;2023-03-22T00:40:44;99606.38;;;16.36;60.73
53246;BME280;39569;51.090;-1.786;2023-03-22T00:43:11;99607.72;;;16.61;60.19
53246;BME280;39569;51.090;-1.786;2023-03-22T00:45:39;99587.25;;;16.49;60.51
53246;BME280;39569;51.090;-1.786;2023-03-22T00:48:07;99604.38;;;16.31;60.92
53246;BME280;39569;51.090;-1.786;2023-03-22T00:50:35;99612.69;;;16.41;60.63
53246;BME280;39569;51.090;-1.786;2023-03-22T00:53:02;99615.09;;;16.15;61.50
53246;BME280;39569;51.090;-1.786;2023-03-22T00:55:29;99599.00;;;16.31;61.85
53246;BME280;39569;51.090;-1.786;2023-03-22T00:57:56;99584.81;;;16.36;61.08
53246;BME280;39569;51.090;-1.786;2023-03-22T01:00:23;99574.97;;;16.69;60.92
53246;BME280;39569;51.090;-1.786;2023-03-22T01:02:52;99581.38;;;16.12;61.90
53246;BME280;39569;51.090;-1.786;2023-03-22T01:05:24;99580.97;;;16.20;61.17
53246;BME280;39569;51.090;-1.786;2023-03-22T01:07:52;99563.88;;;16.66;61.05
53246;BME280;39569;51.090;-1.786;2023-03-22T01:10:19;99557.72;;;16.42;61.42
53246;BME280;39569;51.090;-1.786;2023-03-22T01:12:46;99558.69;;;15.97;62.44
53246;BME280;39569;51.090;-1.786;2023-03-22T01:15:13;99557.25;;;16.06;62.83
53246;BME280;39569;51.090;-1.786;2023-03-22T01:17:40;99562.31;;;15.91;62.96
53246;BME280;39569;51.090;-1.786;2023-03-22T01:20:10;99551.59;;;16.19;63.03
53246;BME280;39569;51.090;-1.786;2023-03-22T01:22:37;99545.91;;;16.04;62.84
53246;BME280;39569;51.090;-1.786;2023-03-22T01:25:04;99539.56;;;16.10;62.75
53246;BME280;39569;51.090;-1.786;2023-03-22T01:27:31;99532.81;;;16.63;61.10
53246;BME280;39569;51.090;-1.786;2023-03-22T01:29:58;99540.78;;;16.30;62.21
53246;BME280;39569;51.090;-1.786;2023-03-22T01:32:25;99537.09;;;16.08;62.65
53246;BME280;39569;51.090;-1.786;2023-03-22T01:34:52;99524.97;;;16.22;62.50
53246;BME280;39569;51.090;-1.786;2023-03-22T01:37:20;99516.53;;;16.30;62.37
53246;BME280;39569;51.090;-1.786;2023-03-22T01:39:52;99512.38;;;16.11;62.45
53246;BME280;39569;51.090;-1.786;2023-03-22T01:42:19;99499.28;;;16.03;62.59
53246;BME280;39569;51.090;-1.786;2023-03-22T01:45:26;99512.22;;;15.90;63.58
53246;BME280;39569;51.090;-1.786;2023-03-22T01:48:00;99490.78;;;15.83;63.37
53246;BME280;39569;51.090;-1.786;2023-03-22T01:50:28;99478.97;;;15.84;63.89
53246;BME280;39569;51.090;-1.786;2023-03-22T01:52:57;99477.09;;;16.13;63.36
53246;BME280;39569;51.090;-1.786;2023-03-22T01:55:29;99475.09;;;15.92;63.38
53246;BME280;39569;51.090;-1.786;2023-03-22T01:57:58;99464.97;;;16.10;63.40
53246;BME280;39569;51.090;-1.786;2023-03-22T02:00:26;99479.81;;;15.85;64.26
53246;BME280;39569;51.090;-1.786;2023-03-22T02:02:53;99460.44;;;15.99;63.85
53246;BME280;39569;51.090;-1.786;2023-03-22T02:05:20;99465.13;;;15.52;64.98
53246;BME280;39569;51.090;-1.786;2023-03-22T02:07:48;99462.50;;;15.81;64.51
53246;BME280;39569;51.090;-1.786;2023-03-22T02:10:19;99465.22;;;15.69;64.21
53246;BME280;39569;51.090;-1.786;2023-03-22T02:12:56;99455.06;;;15.99;64.02
53246;BME280;39569;51.090;-1.786;2023-03-22T02:15:28;99460.50;;;15.76;64.43
53246;BME280;39569;51.090;-1.786;2023-03-22T02:18:09;99453.16;;;15.71;64.83
53246;BME280;39569;51.090;-1.786;2023-03-22T02:21:10;99464.41;;;15.97;64.29
53246;BME280;39569;51.090;-1.786;2023-03-22T02:26:57;99479.50;;;15.98;63.67
53246;BME280;39569;51.090;-1.786;2023-03-22T02:29:35;99440.78;;;15.87;63.82
53246;BME280;39569;51.090;-1.786;2023-03-22T02:35:52;99441.72;;;16.21;63.27
53246;BME280;39569;51.090;-1.786;2023-03-22T02:39:03;99443.03;;;15.90;63.65
53246;BME280;39569;51.090;-1.786;2023-03-22T02:41:45;99430.69;;;16.50;61.86
53246;BME280;39569;51.090;-1.786;2023-03-22T02:44:18;99421.72;;;16.33;62.74
53246;BME280;39569;51.090;-1.786;2023-03-22T02:46:55;99420.44;;;16.36;62.41
53246;BME280;39569;51.090;-1.786;2023-03-22T02:49:32;99416.84;;;15.74;64.90
53246;BME280;39569;51.090;-1.786;2023-03-22T02:52:03;99416.19;;;15.55;64.95
53246;BME280;39569;51.090;-1.786;2023-03-22T02:54:41;99409.34;;;16.04;64.35
53246;BME280;39569;51.090;-1.786;2023-03-22T02:57:12;99418.34;;;16.10;64.17
53246;BME280;39569;51.090;-1.786;2023-03-22T02:59:42;99425.19;;;16.01;63.86
53246;BME280;39569;51.090;-1.786;2023-03-22T03:02:12;99410.59;;;16.13;63.76
53246;BME280;39569;51.090;-1.786;2023-03-22T03:04:45;99418.09;;;16.11;63.75
53246;BME280;39569;51.090;-1.786;2023-03-22T03:07:16;99395.03;;;16.32;63.06
53246;BME280;39569;51.090;-1.786;2023-03-22T03:09:47;99393.34;;;16.14;63.42
53246;BME280;39569;51.090;-1.786;2023-03-22T03:12:17;99377.94;;;16.26;63.40
53246;BME280;39569;51.090;-1.786;2023-03-22T03:14:45;99383.34;;;15.82;63.97
53246;BME280;39569;51.090;-1.786;2023-03-22T03:17:21;99385.16;;;15.93;64.05
53246;BME280;39569;51.090;-1.786;2023-03-22T03:19:59;99377.19;;;15.69;64.44
53246;BME280;39569;51.090;-1.786;2023-03-22T03:22:39;99381.44;;;15.65;64.68
53246;BME280;39569;51.090;-1.786;2023-03-22T03:25:17;99372.16;;;15.73;64.09
53246;BME280;39569;51.090;-1.786;2023-03-22T03:27:47;99384.06;;;16.22;63.37
53246;BME280;39569;51.090;-1.786;2023-03-22T03:30:20;99372.38;;;16.33;63.02
53246;BME280;39569;51.090;-1.786;2023-03-22T03:32:54;99363.97;;;16.29;63.44
53246;BME280;39569;51.090;-1.786;2023-03-22T03:35:26;99380.19;;;15.56;64.80
53246;BME280;39569;51.090;-1.786;2023-03-22T03:37:59;99376.56;;;15.39;64.82
53246;BME280;39569;51.090;-1.786;2023-03-22T03:40:30;99371.13;;;15.91;64.96
53246;BME280;39569;51.090;-1.786;2023-03-22T03:43:01;99361.06;;;16.31;62.93
53246;BME280;39569;51.090;-1.786;2023-03-22T03:45:29;99372.38;;;16.16;63.20
53246;BME280;39569;51.090;-1.786;2023-03-22T03:47:58;99370.69;;;16.10;63.11
53246;BME280;39569;51.090;-1.786;2023-03-22T03:50:26;99374.47;;;15.30;64.90
53246;BME280;39569;51.090;-1.786;2023-03-22T03:52:53;99380.03;;;15.12;66.50
53246;BME280;39569;51.090;-1.786;2023-03-22T03:55:21;99361.22;;;15.51;65.74
53246;BME280;39569;51.090;-1.786;2023-03-22T03:57:49;99383.88;;;15.16;66.36
53246;BME280;39569;51.090;-1.786;2023-03-22T04:00:17;99375.28;;;14.67;67.15
53246;BME280;39569;51.090;-1.786;2023-03-22T04:02:44;99365.66;;;15.57;65.99
53246;BME280;39569;51.090;-1.786;2023-03-22T04:05:12;99350.63;;;15.22;66.26
53246;BME280;39569;51.090;-1.786;2023-03-22T04:07:39;99362.78;;;15.36;65.82
53246;BME280;39569;51.090;-1.786;2023-03-22T04:10:07;99366.25;;;15.48;65.48
53246;BME280;39569;51.090;-1.786;2023-03-22T04:12:33;99354.16;;;15.22;66.39
53246;BME280;39569;51.090;-1.786;2023-03-22T04:15:02;99365.31;;;15.54;66.05
53246;BME280;39569;51.090;-1.786;2023-03-22T04:17:29;99369.44;;;15.33;66.03
53246;BME280;39569;51.090;-1.786;2023-03-22T04:19:56;99345.47;;;15.71;65.89
53246;BME280;39569;51.090;-1.786;2023-03-22T04:22:23;99364.25;;;15.83;65.12
53246;BME280;39569;51.090;-1.786;2023-03-22T04:24:51;99361.72;;;15.48;65.51
53246;BME280;39569;51.090;-1.786;2023-03-22T04:27:19;99347.75;;;15.51;65.67
53246;BME280;39569;51.090;-1.786;2023-03-22T04:29:46;99354.34;;;15.72;65.83
53246;BME280;39569;51.090;-1.786;2023-03-22T04:32:17;99354.03;;;15.68;65.93
53246;BME280;39569;51.090;-1.786;2023-03-22T04:34:47;99345.56;;;15.77;65.70
53246;BME280;39569;51.090;-1.786;2023-03-22T04:37:14;99343.81;;;15.99;65.10
53246;BME280;39569;51.090;-1.786;2023-03-22T04:39:41;99336.78;;;16.14;64.50
53246;BME280;39569;51.090;-1.786;2023-03-22T04:42:08;99349.22;;;16.15;64.38
53246;BME280;39569;51.090;-1.786;2023-03-22T04:44:35;99342.91;;;15.93;65.40
53246;BME280;39569;51.090;-1.786;2023-03-22T04:47:02;99341.56;;;15.79;66.11
53246;BME280;39569;51.090;-1.786;2023-03-22T04:49:31;99344.00;;;15.64;66.99
53246;BME280;39569;51.090;-1.786;2023-03-22T04:51:58;99338.06;;;15.79;65.53
53246;BME280;39569;51.090;-1.786;2023-03-22T04:54:24;99342.00;;;15.88;65.63
53246;BME280;39569;51.090;-1.786;2023-03-22T04:56:51;99351.59;;;15.84;65.74
53246;BME280;39569;51.090;-1.786;2023-03-22T04:59:19;99335.38;;;15.79;65.66
53246;BME280;39569;51.090;-1.786;2023-03-22T05:01:45;99343.78;;;15.54;66.49
53246;BME280;39569;51.090;-1.786;2023-03-22T05:04:12;99346.78;;;16.30;64.68
53246;BME280;39569;51.090;-1.786;2023-03-22T05:06:41;99349.78;;;15.72;66.26
53246;BME280;39569;51.090;-1.786;2023-03-22T05:09:08;99360.50;;;16.29;64.85
53246;BME280;39569;51.090;-1.786;2023-03-22T05:11:35;99355.88;;;15.96;65.75
53246;BME280;39569;51.090;-1.786;2023-03-22T05:14:02;99348.28;;;15.93;66.16
53246;BME280;39569;51.090;-1.786;2023-03-22T05:16:29;99348.88;;;16.28;64.26
53246;BME280;39569;51.090;-1.786;2023-03-22T05:18:56;99350.94;;;16.21;64.74
53246;BME280;39569;51.090;-1.786;2023-03-22T05:21:24;99353.75;;;15.98;65.68
53246;BME280;39569;51.090;-1.786;2023-03-22T05:23:55;99348.72;;;16.18;64.99
53246;BME280;39569;51.090;-1.786;2023-03-22T05:26:22;99335.16;;;16.30;64.89
53246;BME280;39569;51.090;-1.786;2023-03-22T05:28:50;99337.84;;;16.30;65.15
53246;BME280;39569;51.090;-1.786;2023-03-22T05:31:17;99336.16;;;15.79;66.20
53246;BME280;39569;51.090;-1.786;2023-03-22T05:33:46;99333.28;;;16.30;65.18
53246;BME280;39569;51.090;-1.786;2023-03-22T05:36:15;99324.44;;;16.68;63.68
53246;BME280;39569;51.090;-1.786;2023-03-22T05:38:42;99321.69;;;16.46;64.63
53246;BME280;39569;51.090;-1.786;2023-03-22T05:41:11;99337.78;;;16.41;65.08
53246;BME280;39569;51.090;-1.786;2023-03-22T05:43:38;99324.09;;;15.82;66.04
53246;BME280;39569;51.090;-1.786;2023-03-22T05:46:05;99316.47;;;16.56;64.22
53246;BME280;39569;51.090;-1.786;2023-03-22T05:48:32;99315.06;;;16.92;63.50
53246;BME280;39569;51.090;-1.786;2023-03-22T05:51:00;99298.75;;;16.60;63.67
53246;BME280;39569;51.090;-1.786;2023-03-22T05:53:27;99292.94;;;16.52;64.12
53246;BME280;39569;51.090;-1.786;2023-03-22T05:55:55;99321.84;;;16.73;63.24
53246;BME280;39569;51.090;-1.786;2023-03-22T05:58:26;99289.91;;;16.65;63.91
53246;BME280;39569;51.090;-1.786;2023-03-22T06:00:55;99332.25;;;16.48;64.75
53246;BME280;39569;51.090;-1.786;2023-03-22T06:03:25;99306.44;;;16.52;64.50
53246;BME280;39569;51.090;-1.786;2023-03-22T06:05:52;99297.22;;;16.86;63.75
53246;BME280;39569;51.090;-1.786;2023-03-22T06:08:19;99325.34;;;16.73;63.63
53246;BME280;39569;51.090;-1.786;2023-03-22T06:10:48;99323.81;;;16.28;65.43
53246;BME280;39569;51.090;-1.786;2023-03-22T06:13:15;99300.78;;;16.53;65.50
53246;BME280;39569;51.090;-1.786;2023-03-22T06:15:43;99306.94;;;16.49;64.74
53246;BME280;39569;51.090;-1.786;2023-03-22T06:18:10;99307.81;;;16.93;64.42
53246;BME280;39569;51.090;-1.786;2023-03-22T06:20:37;99301.28;;;16.50;65.27
53246;BME280;39569;51.090;-1.786;2023-03-22T06:23:04;99300.31;;;16.07;66.35
53246;BME280;39569;51.090;-1.786;2023-03-22T06:25:31;99302.19;;;16.39;65.87
53246;BME280;39569;51.090;-1.786;2023-03-22T06:27:57;99288.38;;;16.36;66.69
53246;BME280;39569;51.090;-1.786;2023-03-22T06:30:25;99304.97;;;16.11;66.98
53246;BME280;39569;51.090;-1.786;2023-03-22T06:32:53;99313.84;;;16.61;66.14
53246;BME280;39569;51.090;-1.786;2023-03-22T06:35:21;99330.09;;;16.33;66.95
53246;BME280;39569;51.090;-1.786;2023-03-22T06:37:48;99323.94;;;17.09;64.68
53246;BME280;39569;51.090;-1.786;2023-03-22T06:40:15;99314.03;;;16.55;65.62
53246;BME280;39569;51.090;-1.786;2023-03-22T06:42:42;99330.81;;;16.79;64.94
53246;BME280;39569;51.090;-1.786;2023-03-22T06:45:09;99322.81;;;16.67;65.39
53246;BME280;39569;51.090;-1.786;2023-03-22T06:47:38;99322.22;;;17.03;64.80
53246;BME280;39569;51.090;-1.786;2023-03-22T06:50:08;99315.53;;;16.84;64.65
53246;BME280;39569;51.090;-1.786;2023-03-22T06:52:35;99337.94;;;17.06;64.47
53246;BME280;39569;51.090;-1.786;2023-03-22T06:55:03;99339.38;;;16.76;65.16
53246;BME280;39569;51.090;-1.786;2023-03-22T06:57:29;99329.53;;;17.67;62.27
53246;BME280;39569;51.090;-1.786;2023-03-22T06:59:56;99345.66;;;17.41;63.58
53246;BME280;39569;51.090;-1.786;2023-03-22T07:02:23;99350.78;;;16.99;64.20
53246;BME280;39569;51.090;-1.786;2023-03-22T07:04:50;99359.09;;;17.57;62.04
53246;BME280;39569;51.090;-1.786;2023-03-22T07:07:18;99359.16;;;17.19;62.86
53246;BME280;39569;51.090;-1.786;2023-03-22T07:09:45;99365.84;;;16.95;64.14
53246;BME280;39569;51.090;-1.786;2023-03-22T07:12:11;99367.66;;;17.11;63.87
53246;BME280;39569;51.090;-1.786;2023-03-22T07:14:38;99359.00;;;17.47;62.42
53246;BME280;39569;51.090;-1.786;2023-03-22T07:17:05;99372.84;;;17.34;63.42
53246;BME280;39569;51.090;-1.786;2023-03-22T07:19:32;99363.00;;;17.93;60.84
53246;BME280;39569;51.090;-1.786;2023-03-22T07:21:59;99357.34;;;17.95;61.36
53246;BME280;39569;51.090;-1.786;2023-03-22T07:24:27;99362.66;;;17.63;61.56
53246;BME280;39569;51.090;-1.786;2023-03-22T07:26:54;99367.53;;;17.88;61.68
53246;BME280;39569;51.090;-1.786;2023-03-22T07:29:20;99355.94;;;18.19;60.14
53246;BME280;39569;51.090;-1.786;2023-03-22T07:31:47;99366.75;;;17.65;61.40
53246;BME280;39569;51.090;-1.786;2023-03-22T07:34:14;99374.22;;;18.70;58.62
53246;BME280;39569;51.090;-1.786;2023-03-22T07:36:41;99375.16;;;18.91;57.79
53246;BME280;39569;51.090;-1.786;2023-03-22T07:39:08;99371.59;;;18.43;58.45
53246;BME280;39569;51.090;-1.786;2023-03-22T07:41:36;99378.13;;;18.21;59.10
53246;BME280;39569;51.090;-1.786;2023-03-22T07:44:03;99366.81;;;18.55;58.90
53246;BME280;39569;51.090;-1.786;2023-03-22T07:46:31;99367.63;;;18.56;58.75
53246;BME280;39569;51.090;-1.786;2023-03-22T07:48:58;99378.50;;;18.03;59.51
53246;BME280;39569;51.090;-1.786;2023-03-22T07:51:24;99375.09;;;19.27;56.92
53246;BME280;39569;51.090;-1.786;2023-03-22T07:53:51;99383.81;;;18.24;59.13
53246;BME280;39569;51.090;-1.786;2023-03-22T07:56:18;99386.88;;;17.80;60.02
53246;BME280;39569;51.090;-1.786;2023-03-22T07:58:46;99388.94;;;17.94;60.28
53246;BME280;39569;51.090;-1.786;2023-03-22T08:01:13;99382.78;;;17.99;59.73
53246;BME280;39569;51.090;-1.786;2023-03-22T08:03:40;99371.84;;;18.79;58.13
53246;BME280;39569;51.090;-1.786;2023-03-22T08:06:07;99374.97;;;18.02;59.68
53246;BME280;39569;51.090;-1.786;2023-03-22T08:08:35;99370.66;;;18.01;59.80
53246;BME280;39569;51.090;-1.786;2023-03-22T08:11:02;99382.69;;;18.42;58.42
53246;BME280;39569;51.090;-1.786;2023-03-22T08:13:29;99394.34;;;18.47;58.11
53246;BME280;39569;51.090;-1.786;2023-03-22T08:15:57;99398.50;;;18.33;58.85
53246;BME280;39569;51.090;-1.786;2023-03-22T08:18:25;99394.34;;;18.21;58.22
53246;BME280;39569;51.090;-1.786;2023-03-22T08:20:52;99398.75;;;18.58;58.20
53246;BME280;39569;51.090;-1.786;2023-03-22T08:23:20;99399.44;;;17.91;58.81
53246;BME280;39569;51.090;-1.786;2023-03-22T08:25:47;99397.84;;;18.85;57.03
53246;BME280;39569;51.090;-1.786;2023-03-22T08:28:15;99390.91;;;18.94;57.15
53246;BME280;39569;51.090;-1.786;2023-03-22T08:30:42;99390.22;;;19.18;56.09
53246;BME280;39569;51.090;-1.786;2023-03-22T08:33:11;99391.22;;;19.02;56.58
53246;BME280;39569;51.090;-1.786;2023-03-22T08:35:38;99390.09;;;18.98;56.96
53246;BME280;39569;51.090;-1.786;2023-03-22T08:38:05;99411.44;;;19.36;56.02
53246;BME280;39569;51.090;-1.786;2023-03-22T08:40:32;99409.81;;;18.57;58.05
53246;BME280;39569;51.090;-1.786;2023-03-22T08:42:58;99419.41;;;18.70;57.07
53246;BME280;39569;51.090;-1.786;2023-03-22T08:45:25;99409.28;;;19.33;56.13
53246;BME280;39569;51.090;-1.786;2023-03-22T08:47:53;99403.97;;;19.58;54.96
53246;BME280;39569;51.090;-1.786;2023-03-22T08:50:21;99411.75;;;19.03;57.12
53246;BME280;39569;51.090;-1.786;2023-03-22T08:52:48;99417.13;;;18.93;56.52
53246;BME280;39569;51.090;-1.786;2023-03-22T08:55:15;99408.88;;;18.41;58.55
53246;BME280;39569;51.090;-1.786;2023-03-22T08:57:42;99408.59;;;19.11;56.89
53246;BME280;39569;51.090;-1.786;2023-03-22T09:00:15;99418.53;;;19.47;56.14
53246;BME280;39569;51.090;-1.786;2023-03-22T09:02:42;99419.88;;;19.40;56.41
53246;BME280;39569;51.090;-1.786;2023-03-22T09:05:09;99413.53;;;17.71;59.62
53246;BME280;39569;51.090;-1.786;2023-03-22T09:07:39;99410.25;;;18.44;58.28
53246;BME280;39569;51.090;-1.786;2023-03-22T09:10:07;99416.34;;;17.81;59.27
53246;BME280;39569;51.090;-1.786;2023-03-22T09:12:35;99418.34;;;17.91;59.84
53246;BME280;39569;51.090;-1.786;2023-03-22T09:15:02;99414.00;;;18.16;58.96
53246;BME280;39569;51.090;-1.786;2023-03-22T09:17:30;99407.63;;;18.91;56.85
53246;BME280;39569;51.090;-1.786;2023-03-22T09:19:57;99403.38;;;20.64;52.76
53246;BME280;39569;51.090;-1.786;2023-03-22T09:22:24;99410.56;;;21.48;50.32
53246;BME280;39569;51.090;-1.786;2023-03-22T09:24:52;99400.22;;;22.48;48.12
53246;BME280;39569;51.090;-1.786;2023-03-22T09:27:19;99384.06;;;24.08;44.54
53246;BME280;39569;51.090;-1.786;2023-03-22T09:29:46;99383.94;;;22.43;46.67
53246;BME280;39569;51.090;-1.786;2023-03-22T09:32:14;99377.03;;;24.40;42.88
53246;BME280;39569;51.090;-1.786;2023-03-22T09:34:41;99389.00;;;23.83;44.28
53246;BME280;39569;51.090;-1.786;2023-03-22T09:37:08;99376.91;;;25.09;41.31
53246;BME280;39569;51.090;-1.786;2023-03-22T09:39:37;99366.50;;;25.11;40.14
53246;BME280;39569;51.090;-1.786;2023-03-22T09:42:07;99363.03;;;26.45;38.55
53246;BME280;39569;51.090;-1.786;2023-03-22T09:44:42;99361.66;;;28.04;36.03
53246;BME280;39569;51.090;-1.786;2023-03-22T09:47:15;99378.47;;;26.63;38.01
53246;BME280;39569;51.090;-1.786;2023-03-22T09:49:44;99367.44;;;26.98;37.63
53246;BME280;39569;51.090;-1.786;2023-03-22T09:52:14;99365.66;;;26.27;38.11
53246;BME280;39569;51.090;-1.786;2023-03-22T09:54:43;99372.56;;;23.69;42.05
53246;BME280;39569;51.090;-1.786;2023-03-22T09:57:19;99387.38;;;23.16;43.51
53246;BME280;39569;51.090;-1.786;2023-03-22T09:59:53;99387.75;;;22.42;45.64
53246;BME280;39569;51.090;-1.786;2023-03-22T10:02:38;99408.59;;;21.69;45.76
53246;BME280;39569;51.090;-1.786;2023-03-22T10:05:11;99403.38;;;21.78;44.79
53246;BME280;39569;51.090;-1.786;2023-03-22T10:07:52;99397.38;;;21.12;45.66
53246;BME280;39569;51.090;-1.786;2023-03-22T10:10:25;99389.03;;;22.55;44.03
53246;BME280;39569;51.090;-1.786;2023-03-22T10:12:56;99392.91;;;24.19;41.10
53246;BME280;39569;51.090;-1.786;2023-03-22T10:15:28;99393.44;;;25.85;39.21
53246;BME280;39569;51.090;-1.786;2023-03-22T10:17:58;99394.75;;;25.88;37.50
53246;BME280;39569;51.090;-1.786;2023-03-22T10:20:35;99381.09;;;26.90;35.98
53246;BME280;39569;51.090;-1.786;2023-03-22T10:23:06;99387.03;;;28.61;33.49
53246;BME280;39569;51.090;-1.786;2023-03-22T10:25:37;99382.81;;;28.21;32.49
53246;BME280;39569;51.090;-1.786;2023-03-22T10:28:19;99380.16;;;27.81;33.41
53246;BME280;39569;51.090;-1.786;2023-03-22T10:30:49;99383.34;;;26.88;33.10
53246;BME280;39569;51.090;-1.786;2023-03-22T10:33:25;99387.50;;;26.85;32.95
53246;BME280;39569;51.090;-1.786;2023-03-22T10:35:54;99388.53;;;26.98;33.86
53246;BME280;39569;51.090;-1.786;2023-03-22T10:38:24;99396.84;;;26.62;33.89
53246;BME280;39569;51.090;-1.786;2023-03-22T10:40:53;99388.13;;;27.44;34.54
53246;BME280;39569;51.090;-1.786;2023-03-22T10:43:27;99395.84;;;26.00;34.94
53246;BME280;39569;51.090;-1.786;2023-03-22T10:45:56;99409.06;;;25.44;36.03
53246;BME280;39569;51.090;-1.786;2023-03-22T10:48:27;99413.88;;;25.06;36.26
53246;BME280;39569;51.090;-1.786;2023-03-22T10:50:55;99412.66;;;24.11;38.38
53246;BME280;39569;51.090;-1.786;2023-03-22T10:53:32;99403.09;;;23.71;38.99
53246;BME280;39569;51.090;-1.786;2023-03-22T10:56:02;99402.84;;;22.24;42.46
53246;BME280;39569;51.090;-1.786;2023-03-22T10:58:32;99389.78;;;24.07;37.48
53246;BME280;39569;51.090;-1.786;2023-03-22T11:01:03;99387.31;;;26.15;35.24
53246;BME280;39569;51.090;-1.786;2023-03-22T11:03:36;99375.47;;;26.95;33.73
53246;BME280;39569;51.090;-1.786;2023-03-22T11:06:07;99372.63;;;26.78;33.13
53246;BME280;39569;51.090;-1.786;2023-03-22T11:08:43;99398.00;;;28.61;31.38
53246;BME280;39569;51.090;-1.786;2023-03-22T11:11:18;99380.28;;;27.20;32.78
53246;BME280;39569;51.090;-1.786;2023-03-22T11:13:58;99387.13;;;26.34;34.12
53246;BME280;39569;51.090;-1.786;2023-03-22T11:16:26;99391.78;;;26.69;33.13
53246;BME280;39569;51.090;-1.786;2023-03-22T11:18:53;99384.84;;;25.78;34.19
53246;BME280;39569;51.090;-1.786;2023-03-22T11:21:24;99397.84;;;26.66;34.18
53246;BME280;39569;51.090;-1.786;2023-03-22T11:23:57;99394.91;;;21.89;40.94
53246;BME280;39569;51.090;-1.786;2023-03-22T11:26:31;99403.63;;;20.97;42.69
53246;BME280;39569;51.090;-1.786;2023-03-22T11:29:09;99404.44;;;21.08;43.28
53246;BME280;39569;51.090;-1.786;2023-03-22T11:31:49;99384.13;;;22.18;40.95
53246;BME280;39569;51.090;-1.786;2023-03-22T11:34:18;99392.41;;;23.51;38.30
53246;BME280;39569;51.090;-1.786;2023-03-22T11:36:46;99401.53;;;22.89;38.52
53246;BME280;39569;51.090;-1.786;2023-03-22T11:39:19;99386.97;;;22.03;41.15
53246;BME280;39569;51.090;-1.786;2023-03-22T11:41:47;99388.28;;;22.10;40.98
53246;BME280;39569;51.090;-1.786;2023-03-22T11:44:17;99382.09;;;23.90;37.56
53246;BME280;39569;51.090;-1.786;2023-03-22T11:46:52;99366.78;;;25.37;34.64
53246;BME280;39569;51.090;-1.786;2023-03-22T11:49:23;99372.72;;;24.52;35.92
53246;BME280;39569;51.090;-1.786;2023-03-22T11:51:52;99355.97;;;25.04;35.96
53246;BME280;39569;51.090;-1.786;2023-03-22T11:54:25;99381.88;;;25.07;36.49
53246;BME280;39569;51.090;-1.786;2023-03-22T11:56:54;99389.88;;;24.02;36.49
53246;BME280;39569;51.090;-1.786;2023-03-22T11:59:26;99392.41;;;22.41;39.22
53246;BME280;39569;51.090;-1.786;2023-03-22T12:01:56;99378.34;;;25.33;35.38
53246;BME280;39569;51.090;-1.786;2023-03-22T12:04:27;99380.88;;;25.84;33.00
53246;BME280;39569;51.090;-1.786;2023-03-22T12:06:57;99389.19;;;24.47;35.93
53246;BME280;39569;51.090;-1.786;2023-03-22T12:09:34;99388.88;;;23.93;36.62
53246;BME280;39569;51.090;-1.786;2023-03-22T12:12:03;99408.88;;;21.68;40.55
53246;BME280;39569;51.090;-1.786;2023-03-22T12:14:38;99394.59;;;23.02;39.57
53246;BME280;39569;51.090;-1.786;2023-03-22T12:17:10;99394.75;;;22.87;38.78
53246;BME280;39569;51.090;-1.786;2023-03-22T12:19:48;99412.22;;;22.47;39.39
53246;BME280;39569;51.090;-1.786;2023-03-22T12:22:19;99422.16;;;21.64;40.46
53246;BME280;39569;51.090;-1.786;2023-03-22T12:24:47;99416.38;;;21.07;41.85
53246;BME280;39569;51.090;-1.786;2023-03-22T12:27:16;99409.88;;;20.88;42.07
53246;BME280;39569;51.090;-1.786;2023-03-22T12:29:50;99413.59;;;20.11;43.48
53246;BME280;39569;51.090;-1.786;2023-03-22T12:32:24;99408.25;;;20.41;43.23
53246;BME280;39569;51.090;-1.786;2023-03-22T12:34:52;99415.81;;;21.15;43.51
53246;BME280;39569;51.090;-1.786;2023-03-22T12:37:24;99439.28;;;19.84;45.56
53246;BME280;39569;51.090;-1.786;2023-03-22T12:39:55;99434.44;;;19.91;46.79
53246;BME280;39569;51.090;-1.786;2023-03-22T12:42:28;99420.97;;;20.21;46.73
53246;BME280;39569;51.090;-1.786;2023-03-22T12:45:02;99392.25;;;20.60;46.81
53246;BME280;39569;51.090;-1.786;2023-03-22T12:47:33;99399.50;;;20.04;47.23
53246;BME280;39569;51.090;-1.786;2023-03-22T12:50:10;99415.69;;;19.27;47.89
53246;BME280;39569;51.090;-1.786;2023-03-22T12:52:41;99400.44;;;19.53;47.73
53246;BME280;39569;51.090;-1.786;2023-03-22T12:55:18;99414.50;;;19.55;47.24
53246;BME280;39569;51.090;-1.786;2023-03-22T12:57:46;99403.41;;;19.05;48.53
53246;BME280;39569;51.090;-1.786;2023-03-22T13:00:20;99378.53;;;19.65;47.46
53246;BME280;39569;51.090;-1.786;2023-03-22T13:02:51;99392.06;;;19.13;48.34
53246;BME280;39569;51.090;-1.786;2023-03-22T13:05:26;99388.22;;;19.45;48.53
53246;BME280;39569;51.090;-1.786;2023-03-22T13:07:54;99377.22;;;19.15;49.05
53246;BME280;39569;51.090;-1.786;2023-03-22T13:13:46;99347.19;;;19.94;48.21